Time;durP1;ratioP1;P1;durP2;ratioP2;P2;SDS_P1;SDS_P2;PMS_P1;PMS_P2;Temp;Humidity;BMP_temperature;BMP_pressure;BME280_temperature;BME280_humidity;BME280_pressure;Samples;Min_cycle;Max_cycle;Signal;HPM_P1;HPM_P2
2023/01/16 00:01:29;;;;;;;14.70;1.73;;;4.50;73.40;;;;;;4151641;28;20041;-87
2023/01/16 00:03:49;;;;;;;14.55;2.03;;;4.50;73.40;;;;;;4135867;28;20063;-89
2023/01/16 00:06:10;;;;;;;21.48;2.42;;;4.40;73.50;;;;;;4150206;28;20033;-89
2023/01/16 00:08:30;;;;;;;18.67;1.88;;;4.40;73.60;;;;;;4141971;28;21097;-88
2023/01/16 00:10:51;;;;;;;19.75;2.25;;;4.40;73.70;;;;;;4151775;28;20037;-89
2023/01/16 00:13:13;;;;;;;17.45;1.70;;;4.40;73.80;;;;;;4140721;28;20034;-88
2023/01/16 00:15:33;;;;;;;9.07;1.88;;;4.30;73.90;;;;;;4135219;28;20030;-88
2023/01/16 00:17:54;;;;;;;12.13;1.83;;;4.30;74.00;;;;;;4133025;28;20061;-88
2023/01/16 00:20:16;;;;;;;10.45;1.63;;;4.30;74.00;;;;;;4150793;28;20107;-89
2023/01/16 00:22:36;;;;;;;10.73;1.67;;;4.30;74.10;;;;;;4152301;28;20112;-88
2023/01/16 00:24:57;;;;;;;18.65;2.22;;;4.30;74.10;;;;;;4155277;28;20041;-88
2023/01/16 00:27:17;;;;;;;16.70;1.83;;;4.30;74.20;;;;;;4130448;28;20101;-87
2023/01/16 00:29:38;;;;;;;10.73;1.52;;;4.30;74.30;;;;;;4150992;28;20030;-88
2023/01/16 00:31:59;;;;;;;21.08;2.63;;;4.30;74.50;;;;;;4151959;28;20119;-87
2023/01/16 00:34:19;;;;;;;21.27;2.28;;;4.30;74.50;;;;;;4136569;28;20130;-88
2023/01/16 00:36:40;;;;;;;19.42;2.47;;;4.30;74.80;;;;;;4139523;28;20721;-88
2023/01/16 00:39:00;;;;;;;16.02;2.20;;;4.30;74.80;;;;;;4153181;28;20039;-88
2023/01/16 00:41:21;;;;;;;26.13;2.58;;;4.30;75.20;;;;;;4133976;28;20100;-88
2023/01/16 00:43:42;;;;;;;25.40;2.17;;;4.30;75.50;;;;;;4135041;28;20116;-88
2023/01/16 00:46:02;;;;;;;15.80;2.38;;;4.30;75.70;;;;;;4135761;28;20061;-89
2023/01/16 00:48:23;;;;;;;26.48;2.42;;;4.40;76.00;;;;;;4150794;28;20025;-87
2023/01/16 00:50:44;;;;;;;30.00;2.95;;;4.40;75.90;;;;;;4150382;28;20472;-87
2023/01/16 00:53:05;;;;;;;16.50;2.90;;;4.40;76.10;;;;;;4143667;28;20149;-88
2023/01/16 00:55:25;;;;;;;29.25;3.15;;;4.40;76.10;;;;;;4154820;28;20030;-88
2023/01/16 00:57:46;;;;;;;34.17;3.22;;;4.40;76.10;;;;;;4151253;28;20032;-88
2023/01/16 01:00:08;;;;;;;19.08;2.78;;;4.50;76.60;;;;;;4139761;28;20583;-88
2023/01/16 01:02:28;;;;;;;29.55;3.30;;;4.40;76.40;;;;;;4156000;28;20457;-88
2023/01/16 01:04:49;;;;;;;20.23;3.20;;;4.50;76.90;;;;;;4153239;28;20378;-88
2023/01/16 01:07:10;;;;;;;29.80;3.75;;;4.40;77.10;;;;;;4135126;28;20473;-87
2023/01/16 01:09:30;;;;;;;35.65;3.75;;;4.50;77.10;;;;;;4154027;28;20412;-90
2023/01/16 01:11:51;;;;;;;22.25;3.03;;;4.50;77.40;;;;;;4137310;28;20494;-88
2023/01/16 01:14:12;;;;;;;26.08;3.20;;;4.60;77.50;;;;;;4133334;28;20049;-88
2023/01/16 01:16:32;;;;;;;23.20;2.80;;;4.60;77.60;;;;;;4154150;28;20068;-88
2023/01/16 01:18:53;;;;;;;24.48;3.58;;;4.60;77.60;;;;;;4133851;28;20063;-87
2023/01/16 01:21:12;;;;;;;13.85;2.65;;;4.60;77.70;;;;;;4138372;28;20048;-87
2023/01/16 01:23:31;;;;;;;18.10;3.00;;;4.60;77.20;;;;;;4138081;28;20071;-88
2023/01/16 01:25:52;;;;;;;22.48;2.85;;;4.70;78.10;;;;;;4152385;28;20102;-87
2023/01/16 01:28:11;;;;;;;19.58;2.42;;;4.80;78.10;;;;;;4156143;28;20056;-87
2023/01/16 01:30:30;;;;;;;13.27;3.00;;;4.70;78.00;;;;;;4137243;28;20499;-87
2023/01/16 01:32:50;;;;;;;22.58;2.95;;;4.70;78.30;;;;;;4152619;28;20063;-87
2023/01/16 01:35:09;;;;;;;16.40;2.58;;;4.70;78.20;;;;;;4154721;28;20052;-88
2023/01/16 01:37:28;;;;;;;18.17;3.03;;;4.70;78.10;;;;;;4137833;28;20064;-88
2023/01/16 01:39:47;;;;;;;11.13;1.90;;;4.70;77.90;;;;;;4140195;28;20037;-90
2023/01/16 01:44:56;;;;;;;7.70;1.20;;;4.70;77.80;;;;;;4152949;28;20139;-88
2023/01/16 01:47:19;;;;;;;8.57;1.10;;;4.70;77.50;;;;;;4137434;28;20095;-89
2023/01/16 01:49:38;;;;;;;7.93;1.27;;;4.70;77.50;;;;;;4153896;28;20114;-90
2023/01/16 01:52:01;;;;;;;7.50;1.15;;;4.70;77.60;;;;;;4141834;28;21310;-87
2023/01/16 01:54:24;;;;;;;6.53;1.10;;;4.60;77.40;;;;;;4153072;28;20091;-89
2023/01/16 01:56:52;;;;;;;10.25;1.20;;;4.60;77.50;;;;;;4151816;28;20044;-88
2023/01/16 01:59:20;;;;;;;5.85;1.00;;;4.60;77.50;;;;;;4133728;28;20125;-89
2023/01/16 02:01:39;;;;;;;7.63;1.08;;;4.60;77.60;;;;;;4157054;28;20049;-89
2023/01/16 02:04:02;;;;;;;6.88;0.70;;;4.60;77.50;;;;;;4141744;28;20168;-89
2023/01/16 02:06:37;;;;;;;6.95;0.60;;;4.60;77.50;;;;;;4149948;28;20048;-88
2023/01/16 02:08:57;;;;;;;3.88;0.52;;;4.60;77.30;;;;;;4157508;28;20044;-89
2023/01/16 02:11:27;;;;;;;4.63;0.35;;;4.50;77.30;;;;;;4158487;28;20036;-89
2023/01/16 02:13:47;;;;;;;5.50;0.57;;;4.50;77.40;;;;;;4158268;28;20056;-90
2023/01/16 02:21:32;;;;;;;7.38;1.23;;;4.50;77.30;;;;;;4153746;28;20728;-88
2023/01/16 02:24:33;;;;;;;16.80;1.60;;;4.50;77.40;;;;;;4154635;28;20520;-86
2023/01/16 02:27:06;;;;;;;12.88;2.05;;;4.50;77.40;;;;;;4146873;28;20525;-87
2023/01/16 02:29:58;;;;;;;9.80;1.60;;;4.50;77.50;;;;;;4150610;28;20072;-88
2023/01/16 02:32:32;;;;;;;14.18;1.90;;;4.50;77.60;;;;;;4154483;28;20053;-88
2023/01/16 02:35:02;;;;;;;14.00;2.30;;;4.50;77.60;;;;;;4152913;28;20040;-88
2023/01/16 02:37:34;;;;;;;17.13;2.90;;;4.50;77.80;;;;;;4134129;28;20033;-88
2023/01/16 02:40:02;;;;;;;13.43;2.55;;;4.50;78.00;;;;;;4150022;28;20044;-89
2023/01/16 02:42:42;;;;;;;18.27;2.33;;;4.50;78.00;;;;;;4137696;28;20071;-89
2023/01/16 02:45:04;;;;;;;13.52;2.30;;;4.50;78.10;;;;;;4151179;28;20075;-88
2023/01/16 02:47:41;;;;;;;16.85;2.50;;;4.50;78.20;;;;;;4151553;28;20033;-88
2023/01/16 02:50:06;;;;;;;20.25;2.97;;;4.60;78.30;;;;;;4147105;28;20040;-88
2023/01/16 02:52:39;;;;;;;9.35;2.00;;;4.50;78.20;;;;;;4153430;28;20046;-89
2023/01/16 02:55:08;;;;;;;20.95;2.42;;;4.50;78.30;;;;;;4136571;28;20045;-89
2023/01/16 02:57:34;;;;;;;14.45;2.45;;;4.60;78.30;;;;;;4137312;28;20103;-88
2023/01/16 02:59:53;;;;;;;17.55;2.83;;;4.60;78.40;;;;;;4150598;28;20464;-87
2023/01/16 03:02:14;;;;;;;10.75;2.13;;;4.60;78.30;;;;;;4139342;28;20118;-88
2023/01/16 03:04:41;;;;;;;17.33;2.42;;;4.60;78.40;;;;;;4155308;28;20553;-88
2023/01/16 03:07:25;;;;;;;20.90;3.10;;;4.60;78.40;;;;;;4133095;28;20037;-88
2023/01/16 03:10:23;;;;;;;15.10;2.42;;;4.60;78.40;;;;;;4132196;28;20215;-88
2023/01/16 03:13:08;;;;;;;14.98;2.05;;;4.60;78.40;;;;;;4149343;28;20106;-87
2023/01/16 03:15:51;;;;;;;23.38;3.38;;;4.60;78.40;;;;;;4153912;28;20121;-88
2023/01/16 03:18:22;;;;;;;15.60;2.58;;;4.60;78.40;;;;;;4146415;28;20076;-88
2023/01/16 03:20:56;;;;;;;12.25;2.17;;;4.60;78.40;;;;;;4151652;28;20049;-88
2023/01/16 03:23:42;;;;;;;12.38;2.40;;;4.60;79.20;;;;;;4152116;28;20088;-87
2023/01/16 03:26:14;;;;;;;19.55;2.97;;;4.60;78.50;;;;;;4134525;28;20097;-88
2023/01/16 03:28:42;;;;;;;22.40;3.17;;;4.60;78.50;;;;;;4148821;28;20100;-88
2023/01/16 03:31:14;;;;;;;14.18;2.55;;;4.60;78.40;;;;;;4152527;28;20064;-88
2023/01/16 03:33:58;;;;;;;20.20;3.17;;;4.60;78.40;;;;;;4150136;28;20103;-89
2023/01/16 03:36:23;;;;;;;14.00;2.38;;;4.60;78.40;;;;;;4145618;28;20048;-88
2023/01/16 03:38:44;;;;;;;13.10;2.33;;;4.60;78.30;;;;;;4154203;28;20125;-88
2023/01/16 03:41:08;;;;;;;12.10;2.10;;;4.60;78.30;;;;;;4132659;28;20040;-87
2023/01/16 03:43:32;;;;;;;19.60;3.13;;;4.60;78.30;;;;;;4155805;28;20119;-88
2023/01/16 03:46:23;;;;;;;12.90;2.53;;;4.60;78.30;;;;;;4140580;28;20109;-88
2023/01/16 03:48:54;;;;;;;10.73;2.28;;;4.70;78.40;;;;;;4152406;28;20040;-89
2023/01/16 03:51:22;;;;;;;10.77;2.17;;;4.70;78.40;;;;;;4133503;28;20081;-88
2023/01/16 03:53:46;;;;;;;9.55;2.75;;;4.70;78.30;;;;;;4131100;28;20077;-88
2023/01/16 03:56:27;;;;;;;13.50;2.60;;;4.70;78.30;;;;;;4151126;28;20044;-88
2023/01/16 03:58:48;;;;;;;10.13;2.42;;;4.70;78.40;;;;;;4150847;28;20036;-88
2023/01/16 04:01:13;;;;;;;11.98;2.55;;;4.80;78.30;;;;;;4135474;28;20032;-88
2023/01/16 04:03:46;;;;;;;13.65;2.10;;;4.70;78.30;;;;;;4137574;28;20072;-88
2023/01/16 04:06:41;;;;;;;8.10;2.15;;;4.70;78.20;;;;;;4134708;28;20088;-88
2023/01/16 04:09:07;;;;;;;8.75;2.20;;;4.70;78.30;;;;;;4139159;28;20088;-89
2023/01/16 04:11:26;;;;;;;8.10;2.45;;;4.70;78.20;;;;;;4151226;28;20515;-88
2023/01/16 04:13:51;;;;;;;9.32;2.45;;;4.70;78.20;;;;;;4152444;28;20661;-88
2023/01/16 04:16:17;;;;;;;10.57;2.72;;;4.70;78.20;;;;;;4133007;28;20072;-88
2023/01/16 04:18:37;;;;;;;8.48;2.88;;;4.70;78.20;;;;;;4131930;28;20108;-88
2023/01/16 04:20:57;;;;;;;11.10;3.45;;;4.70;78.20;;;;;;4154627;28;20060;-88
2023/01/16 04:23:16;;;;;;;13.27;3.35;;;4.70;78.20;;;;;;4154199;28;20467;-89
2023/01/16 04:25:36;;;;;;;11.43;3.35;;;4.70;78.20;;;;;;4156064;28;20117;-88
2023/01/16 04:27:55;;;;;;;11.75;3.47;;;4.80;78.10;;;;;;4149902;28;20512;-88
2023/01/16 04:30:15;;;;;;;9.25;2.92;;;4.70;78.00;;;;;;4155107;28;20052;-89
2023/01/16 04:32:34;;;;;;;13.55;3.42;;;4.80;78.10;;;;;;4157128;28;20133;-89
2023/01/16 04:34:53;;;;;;;11.98;3.70;;;4.80;78.10;;;;;;4154813;28;20079;-89
2023/01/16 04:37:14;;;;;;;10.15;3.65;;;4.80;78.20;;;;;;4151058;28;20072;-88
2023/01/16 04:39:34;;;;;;;11.93;3.13;;;4.80;78.10;;;;;;4154398;28;20129;-89
2023/01/16 04:41:53;;;;;;;7.38;3.08;;;4.80;78.00;;;;;;4155195;28;20090;-87
2023/01/16 04:44:12;;;;;;;10.43;3.20;;;4.80;78.00;;;;;;4154620;28;20155;-88
2023/01/16 04:46:33;;;;;;;9.00;3.85;;;4.80;78.00;;;;;;4139000;28;20068;-88
2023/01/16 04:48:52;;;;;;;15.02;3.83;;;4.80;78.00;;;;;;4136921;28;20120;-88
2023/01/16 04:51:11;;;;;;;14.45;4.22;;;4.80;78.00;;;;;;4155868;28;20068;-88
2023/01/16 04:53:32;;;;;;;8.55;4.07;;;4.80;78.00;;;;;;4155401;28;20539;-88
2023/01/16 04:55:51;;;;;;;11.48;4.25;;;4.80;78.00;;;;;;4154695;28;20043;-88
2023/01/16 04:58:10;;;;;;;8.65;4.22;;;4.80;78.00;;;;;;4163726;28;20028;-88
2023/01/16 05:00:29;;;;;;;14.10;4.60;;;4.80;78.00;;;;;;4164593;28;20152;-86
2023/01/16 05:02:48;;;;;;;13.60;4.35;;;4.80;77.90;;;;;;4144446;28;20180;-86
2023/01/16 05:05:08;;;;;;;14.32;4.65;;;4.80;77.90;;;;;;4137975;28;20172;-86
2023/01/16 05:07:27;;;;;;;10.13;4.25;;;4.80;78.00;;;;;;4158056;28;20106;-86
2023/01/16 05:09:46;;;;;;;8.07;4.38;;;4.70;77.80;;;;;;4149929;28;20056;-87
2023/01/16 05:12:05;;;;;;;11.82;4.55;;;4.80;77.90;;;;;;4155528;28;20036;-86
2023/01/16 05:14:25;;;;;;;11.02;4.50;;;4.80;77.80;;;;;;4135746;28;20536;-85
2023/01/16 05:16:44;;;;;;;9.35;4.45;;;4.80;77.80;;;;;;4153824;28;20409;-87
2023/01/16 05:19:04;;;;;;;13.35;5.53;;;4.80;77.80;;;;;;4154267;28;20475;-85
2023/01/16 05:21:23;;;;;;;9.65;5.13;;;4.80;77.70;;;;;;4133398;28;20148;-86
2023/01/16 05:23:42;;;;;;;7.85;4.63;;;4.80;77.70;;;;;;4141403;28;20045;-87
2023/01/16 05:26:02;;;;;;;12.75;5.00;;;4.70;77.60;;;;;;4156464;28;20040;-87
2023/01/16 05:28:21;;;;;;;15.07;5.63;;;4.80;77.70;;;;;;4156675;28;20041;-86
2023/01/16 05:30:40;;;;;;;12.20;4.88;;;4.80;77.70;;;;;;4138466;28;20053;-86
2023/01/16 05:33:01;;;;;;;10.80;5.25;;;4.70;77.60;;;;;;4139980;28;20090;-86
2023/01/16 05:35:21;;;;;;;15.25;6.20;;;4.70;77.60;;;;;;4157990;28;20063;-87
2023/01/16 05:37:41;;;;;;;12.02;4.93;;;4.70;77.50;;;;;;4145791;28;20045;-87
2023/01/16 05:40:01;;;;;;;25.67;6.40;;;4.70;77.50;;;;;;4158031;28;20043;-87
2023/01/16 05:42:24;;;;;;;10.98;5.15;;;4.70;77.50;;;;;;4136445;28;20177;-86
2023/01/16 05:44:43;;;;;;;10.20;4.77;;;4.70;77.40;;;;;;4154761;28;20045;-86
2023/01/16 05:47:03;;;;;;;9.48;4.53;;;4.70;77.30;;;;;;4139290;28;20288;-86
2023/01/16 05:49:22;;;;;;;11.80;4.07;;;4.70;77.40;;;;;;4137188;28;20045;-86
2023/01/16 05:51:41;;;;;;;10.57;5.13;;;4.60;77.30;;;;;;4135496;28;20064;-86
2023/01/16 05:54:00;;;;;;;9.23;4.20;;;4.60;77.40;;;;;;4154217;28;20113;-87
2023/01/16 05:56:22;;;;;;;11.88;4.28;;;4.60;77.40;;;;;;4137353;28;20053;-88
2023/01/16 05:58:41;;;;;;;15.98;4.72;;;4.60;77.40;;;;;;4152803;28;20040;-87
2023/01/16 06:01:01;;;;;;;12.18;4.32;;;4.60;77.50;;;;;;4136724;28;20126;-87
2023/01/16 06:03:21;;;;;;;13.55;4.10;;;4.60;77.40;;;;;;4134828;28;20117;-88
2023/01/16 06:05:40;;;;;;;14.25;3.78;;;4.60;77.50;;;;;;4152632;28;20029;-89
2023/01/16 06:07:59;;;;;;;9.43;3.67;;;4.60;77.50;;;;;;4136869;28;20497;-88
2023/01/16 06:10:19;;;;;;;13.63;3.75;;;4.60;77.50;;;;;;4152689;28;20516;-88
2023/01/16 06:12:39;;;;;;;8.27;3.30;;;4.60;77.40;;;;;;4139567;28;20092;-88
2023/01/16 06:14:58;;;;;;;8.82;3.17;;;4.60;77.40;;;;;;4151709;28;20052;-89
2023/01/16 06:17:19;;;;;;;8.73;3.40;;;4.60;77.40;;;;;;4148586;28;20049;-88
2023/01/16 06:19:38;;;;;;;13.45;4.03;;;4.60;77.40;;;;;;4154426;28;20044;-89
2023/01/16 06:21:57;;;;;;;7.85;3.42;;;4.60;77.30;;;;;;4159675;28;20556;-88
2023/01/16 06:24:16;;;;;;;7.28;3.25;;;4.60;77.30;;;;;;4140366;28;20129;-88
2023/01/16 06:26:35;;;;;;;8.60;3.97;;;4.60;77.30;;;;;;4152185;28;20044;-89
2023/01/16 06:28:56;;;;;;;8.75;3.45;;;4.60;77.30;;;;;;4150857;28;20045;-89
2023/01/16 06:31:15;;;;;;;10.30;4.03;;;4.50;77.30;;;;;;4134592;28;20095;-89
2023/01/16 06:33:34;;;;;;;11.32;3.75;;;4.50;77.30;;;;;;4154636;28;20041;-89
2023/01/16 06:35:53;;;;;;;10.65;3.47;;;4.50;77.30;;;;;;4135684;28;20521;-89
2023/01/16 06:38:12;;;;;;;12.05;3.90;;;4.50;77.40;;;;;;4135683;28;20049;-88
2023/01/16 06:40:31;;;;;;;10.07;3.97;;;4.50;77.40;;;;;;4154759;28;20083;-89
2023/01/16 06:42:50;;;;;;;8.95;3.72;;;4.50;77.50;;;;;;4154992;28;20448;-89
2023/01/16 06:45:10;;;;;;;10.20;4.60;;;4.50;77.50;;;;;;4153247;28;21448;-88
2023/01/16 06:47:30;;;;;;;9.00;4.45;;;4.50;77.50;;;;;;4139239;28;20086;-87
2023/01/16 06:49:50;;;;;;;14.32;5.22;;;4.50;77.50;;;;;;4130466;28;20087;-88
2023/01/16 06:52:09;;;;;;;15.38;4.97;;;4.60;77.60;;;;;;4130935;28;20104;-89
2023/01/16 06:54:28;;;;;;;16.10;5.55;;;4.50;77.60;;;;;;4153644;28;20133;-87
2023/01/16 06:56:47;;;;;;;12.98;5.13;;;4.60;77.60;;;;;;4149123;28;20080;-88
2023/01/16 06:59:06;;;;;;;15.13;4.70;;;4.60;77.60;;;;;;4134689;28;20104;-88
2023/01/16 07:01:26;;;;;;;13.30;5.00;;;4.60;77.70;;;;;;4148879;28;20137;-90
2023/01/16 07:03:45;;;;;;;9.80;5.57;;;4.60;77.60;;;;;;4132545;28;20044;-88
2023/01/16 07:06:04;;;;;;;8.68;5.00;;;4.60;78.40;;;;;;4135814;28;20048;-88
2023/01/16 07:08:23;;;;;;;10.07;5.20;;;4.60;77.60;;;;;;4155902;28;20033;-88
2023/01/16 07:10:42;;;;;;;23.08;7.70;;;4.60;77.60;;;;;;4163110;28;20044;-88
2023/01/16 07:13:02;;;;;;;20.00;7.05;;;4.60;77.70;;;;;;4157757;28;20072;-88
2023/01/16 07:23:23;;;;;;;11.63;5.45;;;4.60;77.60;;;;;;4149247;28;20141;-89
2023/01/16 07:25:42;;;;;;;9.40;4.70;;;4.60;77.50;;;;;;4130934;28;20088;-89
2023/01/16 07:28:02;;;;;;;10.30;4.35;;;4.60;77.50;;;;;;4139493;28;20115;-89
2023/01/16 07:30:22;;;;;;;11.63;5.05;;;4.60;77.50;;;;;;4129634;28;21152;-89
2023/01/16 07:32:22;;;;;;;12.32;4.90;;;4.60;77.50;;;;;;4152698;28;20064;-90
2023/01/16 07:34:23;;;;;;;11.40;4.82;;;4.60;77.60;;;;;;4133949;28;20029;-88
2023/01/16 07:36:24;;;;;;;10.48;5.22;;;4.60;77.60;;;;;;4159582;28;20144;-88
2023/01/16 07:38:24;;;;;;;10.10;4.80;;;4.60;77.60;;;;;;4139771;28;20033;-88
2023/01/16 07:40:25;;;;;;;8.15;4.80;;;4.60;77.60;;;;;;4141583;28;20053;-89
2023/01/16 07:42:25;;;;;;;9.45;4.32;;;4.60;77.60;;;;;;4138540;28;20034;-89
2023/01/16 07:44:26;;;;;;;14.95;4.47;;;4.60;77.60;;;;;;4168860;28;20086;-87
2023/01/16 07:46:27;;;;;;;11.05;4.95;;;4.60;77.60;;;;;;4142415;28;20030;-88
2023/01/16 07:48:28;;;;;;;13.73;5.28;;;4.60;77.60;;;;;;4152434;28;20021;-89
2023/01/16 07:50:29;;;;;;;13.35;4.47;;;4.60;77.60;;;;;;4133139;28;20141;-89
2023/01/16 07:52:30;;;;;;;10.88;4.38;;;4.60;77.50;;;;;;4151603;28;20041;-88
2023/01/16 07:54:31;;;;;;;12.82;4.25;;;4.80;77.70;;;;;;4125077;28;20014;-88
2023/01/16 07:56:31;;;;;;;12.25;4.80;;;4.60;77.60;;;;;;4134604;28;20447;-88
2023/01/16 07:58:32;;;;;;;10.23;4.57;;;4.60;77.60;;;;;;4140438;28;20040;-88
2023/01/16 08:00:33;;;;;;;11.55;4.47;;;4.60;77.60;;;;;;4142702;28;20022;-89
2023/01/16 08:02:33;;;;;;;13.60;4.68;;;4.60;77.60;;;;;;4140327;28;20041;-88
2023/01/16 08:04:34;;;;;;;12.70;4.70;;;4.60;77.60;;;;;;4139652;28;20085;-89
2023/01/16 08:06:35;;;;;;;14.88;4.63;;;4.60;77.60;;;;;;4144184;28;20077;-89
2023/01/16 08:08:36;;;;;;;12.02;4.35;;;4.60;77.50;;;;;;4132221;28;20025;-88
2023/01/16 08:10:36;;;;;;;11.00;4.43;;;4.70;77.60;;;;;;4155296;28;20044;-88
2023/01/16 08:12:39;;;;;;;8.93;4.30;;;4.60;77.50;;;;;;4155305;28;20156;-88
2023/01/16 08:14:39;;;;;;;11.68;4.45;;;4.60;77.50;;;;;;4135328;28;20191;-88
2023/01/16 08:16:40;;;;;;;10.88;4.15;;;4.60;77.50;;;;;;4152298;28;20134;-88
2023/01/16 08:18:41;;;;;;;12.80;4.25;;;4.60;77.50;;;;;;4136369;28;20039;-87
2023/01/16 08:20:44;;;;;;;9.68;3.75;;;4.60;77.50;;;;;;4137512;28;20065;-89
2023/01/16 08:22:46;;;;;;;8.20;4.10;;;4.60;77.50;;;;;;4152094;28;20041;-87
2023/01/16 08:24:46;;;;;;;10.55;4.15;;;4.60;77.40;;;;;;4124564;28;20105;-88
2023/01/16 08:26:47;;;;;;;8.57;4.22;;;4.60;77.50;;;;;;4133628;28;20074;-88
2023/01/16 08:28:48;;;;;;;12.82;4.05;;;4.60;77.50;;;;;;4148371;28;20030;-88
2023/01/16 08:30:49;;;;;;;6.45;3.55;;;4.60;77.50;;;;;;4135641;28;21017;-88
2023/01/16 08:32:56;;;;;;;9.48;3.38;;;4.60;77.50;;;;;;4121385;28;20133;-88
2023/01/16 08:34:56;;;;;;;9.70;3.63;;;4.60;77.50;;;;;;4131282;28;20026;-89
2023/01/16 08:36:57;;;;;;;6.80;3.25;;;4.70;77.60;;;;;;4156653;28;20084;-88
2023/01/16 08:38:58;;;;;;;12.45;3.50;;;4.70;77.60;;;;;;4135534;28;20057;-88
2023/01/16 08:40:59;;;;;;;7.25;3.28;;;4.80;77.60;;;;;;4153132;28;20029;-88
2023/01/16 08:52:17;;;;;;;11.15;2.83;;;4.70;77.50;;;;;;4154709;28;20038;-87
2023/01/16 08:54:18;;;;;;;4.25;2.13;;;4.80;77.50;;;;;;4152181;28;20044;-88
2023/01/16 08:56:20;;;;;;;8.05;2.38;;;4.70;77.50;;;;;;4136610;28;20061;-86
2023/01/16 08:58:21;;;;;;;5.20;2.55;;;4.70;77.50;;;;;;4135466;28;20567;-88
2023/01/16 09:00:22;;;;;;;8.07;2.30;;;4.70;77.50;;;;;;4134584;28;20076;-89
2023/01/16 09:02:24;;;;;;;5.15;2.33;;;4.70;77.60;;;;;;4140151;28;20068;-89
2023/01/16 09:04:24;;;;;;;4.53;2.15;;;4.70;77.50;;;;;;4124914;28;20018;-87
2023/01/16 09:06:25;;;;;;;8.10;1.77;;;4.70;77.50;;;;;;4164494;28;20037;-87
2023/01/16 09:08:27;;;;;;;8.18;2.03;;;4.70;77.50;;;;;;4140109;28;20057;-88
2023/01/16 09:10:29;;;;;;;6.13;1.98;;;4.80;77.60;;;;;;4158051;28;20041;-87
2023/01/16 09:14:49;;;;;;;7.35;2.20;;;4.80;77.50;;;;;;4155697;28;20026;-89
2023/01/16 09:16:50;;;;;;;6.10;2.10;;;4.80;77.50;;;;;;4143526;28;20048;-86
2023/01/16 09:18:51;;;;;;;4.22;1.60;;;4.80;77.50;;;;;;4139690;28;20029;-88
2023/01/16 09:20:52;;;;;;;3.33;1.52;;;4.80;77.50;;;;;;4117490;28;20031;-89
2023/01/16 09:22:57;;;;;;;5.63;1.75;;;4.80;77.50;;;;;;4150176;28;20067;-89
2023/01/16 09:24:58;;;;;;;10.88;2.03;;;4.80;77.40;;;;;;4151527;28;20104;-88
2023/01/16 09:27:00;;;;;;;6.60;2.00;;;4.90;77.50;;;;;;4134620;28;20061;-87
2023/01/16 09:29:01;;;;;;;12.63;2.40;;;4.90;77.50;;;;;;4150011;28;20022;-89
2023/01/16 09:31:01;;;;;;;5.90;2.30;;;4.80;77.40;;;;;;4154159;28;20112;-88
2023/01/16 09:33:02;;;;;;;8.75;1.95;;;4.90;77.50;;;;;;4142404;28;20128;-89
2023/01/16 09:35:03;;;;;;;7.55;1.58;;;4.90;77.50;;;;;;4156805;28;20038;-88
2023/01/16 09:37:05;;;;;;;7.43;1.58;;;4.90;77.50;;;;;;4137958;28;20030;-87
2023/01/16 09:39:07;;;;;;;7.77;1.67;;;4.90;77.60;;;;;;4151316;28;20037;-89
2023/01/16 09:43:35;;;;;;;9.07;2.15;;;4.90;77.70;;;;;;4138116;28;20346;-88
2023/01/16 09:43:40;;;;;;;5.70;1.58;;;5.00;77.70;;;;;;4153580;28;20029;-88
2023/01/16 09:45:43;;;;;;;6.18;1.85;;;5.00;77.70;;;;;;4133380;28;20040;-89
2023/01/16 09:47:49;;;;;;;;;;;5.00;78.50;;;;;;4154417;28;20602;-88
2023/01/16 09:50:01;;;;;;;8.27;1.52;;;5.10;77.80;;;;;;4119727;28;19944;-88
2023/01/16 09:59:54;;;;;;;5.68;1.33;;;5.20;77.20;;;;;;4147418;28;20039;-87
2023/01/16 10:02:04;;;;;;;3.42;1.20;;;5.20;77.20;;;;;;4121844;28;20062;-89
2023/01/16 10:04:18;;;;;;;4.20;1.30;;;5.20;77.10;;;;;;4157483;28;20025;-88
2023/01/16 10:06:40;;;;;;;5.20;1.58;;;5.20;77.70;;;;;;4138851;28;20045;-88
2023/01/16 10:08:53;;;;;;;6.78;1.73;;;5.20;76.80;;;;;;4151953;28;20018;-88
2023/01/16 10:11:17;;;;;;;7.17;1.67;;;5.30;76.70;;;;;;4134988;28;20065;-89
2023/01/16 10:13:52;;;;;;;4.53;1.58;;;5.20;76.50;;;;;;4117444;28;20297;-88
2023/01/16 10:16:18;;;;;;;6.82;1.73;;;5.20;76.40;;;;;;4136287;28;20038;-88
2023/01/16 10:18:37;;;;;;;7.13;1.95;;;5.30;76.40;;;;;;4153391;28;20064;-88
2023/01/16 10:20:51;;;;;;;6.80;2.10;;;5.30;76.50;;;;;;4155886;28;20076;-89
2023/01/16 10:23:15;;;;;;;9.20;2.05;;;5.30;76.40;;;;;;4124177;28;20023;-89
2023/01/16 10:25:28;;;;;;;8.57;1.80;;;5.30;76.50;;;;;;4145755;28;20038;-88
2023/01/16 10:27:35;;;;;;;7.90;2.10;;;5.30;76.50;;;;;;4169764;28;20018;-88
2023/01/16 10:29:36;;;;;;;8.63;2.22;;;5.30;76.50;;;;;;4142479;28;20026;-89
2023/01/16 10:31:53;;;;;;;8.90;1.70;;;5.30;76.40;;;;;;4158175;28;20037;-89
2023/01/16 10:33:57;;;;;;;4.90;1.60;;;5.40;76.50;;;;;;4157737;28;20579;-89
2023/01/16 10:35:59;;;;;;;5.03;1.40;;;5.40;76.50;;;;;;4157782;28;20029;-88
2023/01/16 10:38:13;;;;;;;6.25;1.42;;;5.40;76.40;;;;;;4136900;28;20147;-88
2023/01/16 10:40:24;;;;;;;7.03;1.30;;;5.40;76.30;;;;;;4154376;28;20513;-89
2023/01/16 10:49:51;;;;;;;6.78;1.48;;;5.50;75.90;;;;;;4157766;28;20048;-89
2023/01/16 10:51:53;;;;;;;6.85;1.67;;;5.50;75.70;;;;;;4134757;28;20030;-89
2023/01/16 10:53:53;;;;;;;4.10;1.20;;;5.50;75.60;;;;;;4153341;28;20029;-89
2023/01/16 10:55:55;;;;;;;7.80;1.60;;;5.50;75.60;;;;;;4138133;28;20034;-89
2023/01/16 10:58:00;;;;;;;4.70;1.50;;;5.50;75.60;;;;;;4131053;28;20453;-89
2023/01/16 11:00:06;;;;;;;5.50;1.40;;;5.50;75.40;;;;;;4135256;28;21122;-89
2023/01/16 11:02:23;;;;;;;5.72;1.60;;;5.60;75.40;;;;;;4129605;28;20054;-89
2023/01/16 11:04:34;;;;;;;6.00;1.15;;;5.60;75.30;;;;;;4130168;28;20045;-89
2023/01/16 11:06:37;;;;;;;8.38;1.50;;;5.60;75.20;;;;;;4146383;28;20133;-89
2023/01/16 11:08:39;;;;;;;5.05;1.45;;;5.50;75.10;;;;;;4151133;28;20022;-89
2023/01/16 11:10:43;;;;;;;5.38;1.42;;;5.60;75.20;;;;;;4116634;28;20089;-88
2023/01/16 11:19:53;;;;;;;5.43;1.67;;;5.60;74.80;;;;;;4152390;28;20037;-90
2023/01/16 11:22:08;;;;;;;7.15;1.58;;;5.60;74.70;;;;;;4115392;28;20505;-88
2023/01/16 11:24:21;;;;;;;4.30;1.00;;;5.70;74.70;;;;;;4121822;28;20141;-88
2023/01/16 11:26:21;;;;;;;7.85;1.67;;;5.60;74.60;;;;;;4115423;28;20030;-89
2023/01/16 11:28:30;;;;;;;3.22;1.00;;;5.60;74.60;;;;;;4133184;28;20125;-88
2023/01/16 11:30:38;;;;;;;3.85;1.48;;;5.60;74.50;;;;;;4128903;28;20073;-89
2023/01/16 11:32:47;;;;;;;7.72;1.35;;;5.60;74.40;;;;;;4126123;28;20113;-87
2023/01/16 11:34:48;;;;;;;6.72;1.60;;;5.60;74.30;;;;;;4139337;28;20600;-90
2023/01/16 11:36:49;;;;;;;4.70;1.20;;;5.60;74.30;;;;;;4116726;28;20027;-90
2023/01/16 11:38:51;;;;;;;4.88;1.25;;;5.70;74.30;;;;;;4127277;28;20038;-89
2023/01/16 11:40:59;;;;;;;4.38;1.00;;;5.60;74.20;;;;;;4150904;28;20477;-89
2023/01/16 11:46:27;;;;;;;4.57;0.93;;;5.60;74.10;;;;;;4156578;28;20033;-90
2023/01/16 11:48:54;;;;;;;4.55;1.30;;;5.60;73.90;;;;;;4138369;28;20082;-89
2023/01/16 11:51:18;;;;;;;3.85;1.00;;;5.70;74.00;;;;;;4157313;28;20037;-90
2023/01/16 11:53:39;;;;;;;2.28;0.95;;;5.70;74.60;;;;;;4161972;28;20156;-89
2023/01/16 11:56:21;;;;;;;3.60;1.10;;;5.70;73.70;;;;;;4140905;28;21179;-89
2023/01/16 11:59:06;;;;;;;6.22;1.27;;;5.60;73.40;;;;;;4132068;28;20067;-90
2023/01/16 12:04:29;;;;;;;3.95;0.90;;;5.60;73.50;;;;;;4155405;28;20445;-89
2023/01/16 12:07:05;;;;;;;6.03;1.65;;;5.70;73.50;;;;;;4135891;28;20049;-89
2023/01/16 12:09:31;;;;;;;6.55;1.30;;;5.60;73.40;;;;;;4149814;28;20037;-89
2023/01/16 12:15:00;;;;;;;4.68;1.10;;;5.60;73.30;;;;;;4153459;28;20025;-90
2023/01/16 12:17:47;;;;;;;6.53;1.10;;;5.60;73.00;;;;;;4150145;28;20523;-89
2023/01/16 12:20:31;;;;;;;5.93;1.00;;;5.70;73.10;;;;;;4152600;28;20036;-90
2023/01/16 12:22:54;;;;;;;4.80;1.17;;;5.70;72.70;;;;;;4150047;28;20042;-90
2023/01/16 12:25:50;;;;;;;5.65;1.10;;;5.70;72.80;;;;;;4151961;28;20078;-88
2023/01/16 12:28:16;;;;;;;5.93;1.25;;;5.60;72.60;;;;;;4112670;28;20493;-89
2023/01/16 12:30:43;;;;;;;4.50;1.15;;;5.60;72.50;;;;;;4117225;28;20030;-89
2023/01/16 12:33:36;;;;;;;6.15;0.98;;;5.60;72.50;;;;;;4114371;28;20581;-88
2023/01/16 12:36:26;;;;;;;4.15;1.05;;;5.60;72.30;;;;;;4056944;29;20438;-89
2023/01/16 12:38:56;;;;;;;5.90;1.17;;;5.60;72.30;;;;;;4067942;29;20059;-90
2023/01/16 12:44:23;;;;;;;5.00;1.10;;;5.60;72.30;;;;;;4071742;29;20048;-90
2023/01/16 12:47:09;;;;;;;5.70;1.00;;;5.70;73.00;;;;;;4071397;29;20141;-89
2023/01/16 12:49:40;;;;;;;4.82;1.10;;;5.60;72.30;;;;;;4074097;29;20521;-89
2023/01/16 12:52:26;;;;;;;4.57;0.93;;;5.50;72.30;;;;;;4074203;29;20191;-89
2023/01/16 12:55:19;;;;;;;3.85;0.70;;;5.60;72.40;;;;;;4074115;29;20035;-89
2023/01/16 12:57:48;;;;;;;2.75;0.95;;;5.50;72.30;;;;;;4074704;29;21366;-90
2023/01/16 13:00:11;;;;;;;3.28;1.02;;;5.50;72.50;;;;;;4071898;29;20583;-90
2023/01/16 13:02:39;;;;;;;6.13;1.00;;;5.50;72.40;;;;;;4073965;29;20035;-89
2023/01/16 13:05:04;;;;;;;5.75;0.90;;;5.50;72.40;;;;;;4092972;28;20097;-89
2023/01/16 13:07:28;;;;;;;6.10;0.98;;;5.50;72.40;;;;;;4104834;28;20470;-89